sensor_id;sensor_type;location;lat;lon;timestamp;pressure;altitude;pressure_sealevel;temperature;humidity
61109;BME280;46995;55.740;37.402;2022-12-05T00:01:26;102390.53;;;-9.52;69.91
61109;BME280;46995;55.740;37.402;2022-12-05T00:03:54;102382.66;;;-9.56;69.92
61109;BME280;46995;55.740;37.402;2022-12-05T00:06:21;102377.91;;;-9.68;70.20
61109;BME280;46995;55.740;37.402;2022-12-05T00:08:48;102389.34;;;-9.60;70.39
61109;BME280;46995;55.740;37.402;2022-12-05T00:11:21;102397.09;;;-9.58;70.63
61109;BME280;46995;55.740;37.402;2022-12-05T00:13:48;102401.25;;;-9.60;70.15
61109;BME280;46995;55.740;37.402;2022-12-05T00:16:18;102385.47;;;-9.71;70.51
61109;BME280;46995;55.740;37.402;2022-12-05T00:18:44;102393.41;;;-9.65;69.98
61109;BME280;46995;55.740;37.402;2022-12-05T00:21:16;102395.16;;;-9.64;70.07
61109;BME280;46995;55.740;37.402;2022-12-05T00:23:42;102392.34;;;-9.70;70.13
61109;BME280;46995;55.740;37.402;2022-12-05T00:26:08;102387.31;;;-9.68;70.35
61109;BME280;46995;55.740;37.402;2022-12-05T00:28:34;102360.09;;;-9.87;70.04
61109;BME280;46995;55.740;37.402;2022-12-05T00:31:06;102377.53;;;-9.77;70.26
61109;BME280;46995;55.740;37.402;2022-12-05T00:33:32;102390.41;;;-9.75;70.94
61109;BME280;46995;55.740;37.402;2022-12-05T00:36:04;102388.78;;;-9.73;70.43
61109;BME280;46995;55.740;37.402;2022-12-05T00:38:31;102391.13;;;-9.78;70.18
61109;BME280;46995;55.740;37.402;2022-12-05T00:41:08;102368.09;;;-9.79;70.27
61109;BME280;46995;55.740;37.402;2022-12-05T00:43:35;102380.72;;;-9.82;70.69
61109;BME280;46995;55.740;37.402;2022-12-05T00:46:09;102378.03;;;-9.86;71.03
61109;BME280;46995;55.740;37.402;2022-12-05T00:48:36;102357.00;;;-9.99;70.50
61109;BME280;46995;55.740;37.402;2022-12-05T00:51:17;102368.50;;;-9.90;71.00
61109;BME280;46995;55.740;37.402;2022-12-05T00:53:45;102355.94;;;-10.04;70.63
61109;BME280;46995;55.740;37.402;2022-12-05T00:56:14;102358.56;;;-10.03;71.33
61109;BME280;46995;55.740;37.402;2022-12-05T00:58:40;102371.69;;;-9.95;71.11
61109;BME280;46995;55.740;37.402;2022-12-05T01:01:09;102370.00;;;-9.95;71.13
61109;BME280;46995;55.740;37.402;2022-12-05T01:03:35;102367.28;;;-9.98;71.21
61109;BME280;46995;55.740;37.402;2022-12-05T01:06:01;102356.19;;;-9.98;70.97
61109;BME280;46995;55.740;37.402;2022-12-05T01:08:27;102359.63;;;-9.98;71.29
61109;BME280;46995;55.740;37.402;2022-12-05T01:10:56;102339.75;;;-10.05;71.20
61109;BME280;46995;55.740;37.402;2022-12-05T01:13:24;102340.88;;;-9.98;71.02
61109;BME280;46995;55.740;37.402;2022-12-05T01:15:50;102330.34;;;-10.06;71.07
61109;BME280;46995;55.740;37.402;2022-12-05T01:18:16;102333.88;;;-10.02;70.39
61109;BME280;46995;55.740;37.402;2022-12-05T01:20:42;102311.31;;;-10.12;71.05
61109;BME280;46995;55.740;37.402;2022-12-05T01:23:09;102334.69;;;-10.03;71.30
61109;BME280;46995;55.740;37.402;2022-12-05T01:25:55;102316.31;;;-10.15;71.23
61109;BME280;46995;55.740;37.402;2022-12-05T01:28:20;102311.09;;;-10.18;70.85
61109;BME280;46995;55.740;37.402;2022-12-05T01:30:48;102315.63;;;-10.11;70.91
61109;BME280;46995;55.740;37.402;2022-12-05T01:33:14;102318.03;;;-10.14;71.07
61109;BME280;46995;55.740;37.402;2022-12-05T01:35:41;102319.78;;;-10.13;70.95
61109;BME280;46995;55.740;37.402;2022-12-05T01:38:08;102290.28;;;-10.27;71.07
61109;BME280;46995;55.740;37.402;2022-12-05T01:40:37;102308.75;;;-10.12;70.92
61109;BME280;46995;55.740;37.402;2022-12-05T01:43:05;102301.91;;;-10.13;70.91
61109;BME280;46995;55.740;37.402;2022-12-05T01:45:34;102304.47;;;-10.13;71.15
61109;BME280;46995;55.740;37.402;2022-12-05T01:48:03;102302.69;;;-10.16;71.04
61109;BME280;46995;55.740;37.402;2022-12-05T01:50:31;102302.63;;;-10.17;71.14
61109;BME280;46995;55.740;37.402;2022-12-05T01:52:57;102299.13;;;-10.19;71.04
61109;BME280;46995;55.740;37.402;2022-12-05T01:55:23;102297.44;;;-10.19;71.03
61109;BME280;46995;55.740;37.402;2022-12-05T01:57:49;102309.03;;;-10.06;71.14
61109;BME280;46995;55.740;37.402;2022-12-05T02:00:17;102304.78;;;-10.06;70.59
61109;BME280;46995;55.740;37.402;2022-12-05T02:02:51;102295.19;;;-10.11;70.90
61109;BME280;46995;55.740;37.402;2022-12-05T02:05:25;102304.72;;;-10.07;70.48
61109;BME280;46995;55.740;37.402;2022-12-05T02:07:52;102291.84;;;-10.10;71.00
61109;BME280;46995;55.740;37.402;2022-12-05T02:10:18;102316.94;;;-10.00;70.81
61109;BME280;46995;55.740;37.402;2022-12-05T02:12:44;102284.81;;;-10.14;70.22
61109;BME280;46995;55.740;37.402;2022-12-05T02:21:26;102285.00;;;-10.10;70.93
61109;BME280;46995;55.740;37.402;2022-12-05T02:31:38;102292.94;;;-10.04;70.42
61109;BME280;46995;55.740;37.402;2022-12-05T02:37:25;102271.97;;;-10.17;70.81
61109;BME280;46995;55.740;37.402;2022-12-05T02:40:09;102270.22;;;-10.18;70.96
61109;BME280;46995;55.740;37.402;2022-12-05T02:45:08;102280.13;;;-10.05;70.43
61109;BME280;46995;55.740;37.402;2022-12-05T02:47:39;102272.03;;;-10.16;69.83
61109;BME280;46995;55.740;37.402;2022-12-05T02:50:09;102265.09;;;-10.18;70.48
61109;BME280;46995;55.740;37.402;2022-12-05T02:52:52;102271.72;;;-10.23;70.38
61109;BME280;46995;55.740;37.402;2022-12-05T02:55:19;102258.81;;;-10.26;70.11
61109;BME280;46995;55.740;37.402;2022-12-05T02:57:51;102280.53;;;-10.15;70.11
61109;BME280;46995;55.740;37.402;2022-12-05T03:00:18;102275.44;;;-10.15;70.83
61109;BME280;46995;55.740;37.402;2022-12-05T03:02:44;102251.97;;;-10.27;70.65
61109;BME280;46995;55.740;37.402;2022-12-05T03:05:20;102254.63;;;-10.24;70.28
61109;BME280;46995;55.740;37.402;2022-12-05T03:07:49;102253.56;;;-10.30;70.65
61109;BME280;46995;55.740;37.402;2022-12-05T03:10:23;102250.75;;;-10.36;70.65
61109;BME280;46995;55.740;37.402;2022-12-05T03:12:55;102259.47;;;-10.31;70.17
61109;BME280;46995;55.740;37.402;2022-12-05T03:15:25;102247.28;;;-10.38;70.67
61109;BME280;46995;55.740;37.402;2022-12-05T03:17:58;102261.91;;;-10.34;70.72
61109;BME280;46995;55.740;37.402;2022-12-05T03:20:44;102248.09;;;-10.39;70.98
61109;BME280;46995;55.740;37.402;2022-12-05T03:23:22;102255.81;;;-10.37;70.87
61109;BME280;46995;55.740;37.402;2022-12-05T03:25:57;102244.34;;;-10.47;70.31
61109;BME280;46995;55.740;37.402;2022-12-05T03:28:33;102239.91;;;-10.51;70.80
61109;BME280;46995;55.740;37.402;2022-12-05T03:31:08;102259.66;;;-10.47;71.02
61109;BME280;46995;55.740;37.402;2022-12-05T03:33:41;102232.66;;;-10.61;70.34
61109;BME280;46995;55.740;37.402;2022-12-05T03:36:18;102247.56;;;-10.51;71.14
61109;BME280;46995;55.740;37.402;2022-12-05T03:39:00;102221.47;;;-10.64;70.86
61109;BME280;46995;55.740;37.402;2022-12-05T03:41:40;102252.47;;;-10.55;70.82
61109;BME280;46995;55.740;37.402;2022-12-05T03:44:18;102238.72;;;-10.59;70.79
61109;BME280;46995;55.740;37.402;2022-12-05T03:46:52;102235.78;;;-10.68;71.05
61109;BME280;46995;55.740;37.402;2022-12-05T03:49:46;102243.38;;;-10.69;71.59
61109;BME280;46995;55.740;37.402;2022-12-05T03:52:14;102231.53;;;-10.67;71.35
61109;BME280;46995;55.740;37.402;2022-12-05T03:54:48;102234.41;;;-10.60;71.37
61109;BME280;46995;55.740;37.402;2022-12-05T03:57:26;102237.16;;;-10.55;70.73
61109;BME280;46995;55.740;37.402;2022-12-05T04:00:11;102227.72;;;-10.58;71.04
61109;BME280;46995;55.740;37.402;2022-12-05T04:02:49;102208.63;;;-10.66;70.46
61109;BME280;46995;55.740;37.402;2022-12-05T04:05:45;102199.78;;;-10.74;70.85
61109;BME280;46995;55.740;37.402;2022-12-05T04:08:17;102212.94;;;-10.65;70.83
61109;BME280;46995;55.740;37.402;2022-12-05T04:10:46;102215.59;;;-10.62;71.04
61109;BME280;46995;55.740;37.402;2022-12-05T04:13:59;102214.00;;;-10.60;71.08
61109;BME280;46995;55.740;37.402;2022-12-05T04:16:32;102200.69;;;-10.72;70.75
61109;BME280;46995;55.740;37.402;2022-12-05T04:19:37;102199.78;;;-10.74;70.55
61109;BME280;46995;55.740;37.402;2022-12-05T04:22:23;102218.16;;;-10.62;70.88
61109;BME280;46995;55.740;37.402;2022-12-05T04:24:50;102206.75;;;-10.70;70.61
61109;BME280;46995;55.740;37.402;2022-12-05T04:27:45;102213.72;;;-10.66;70.64
61109;BME280;46995;55.740;37.402;2022-12-05T04:30:16;102208.63;;;-10.66;71.10
61109;BME280;46995;55.740;37.402;2022-12-05T04:35:51;102193.03;;;-10.72;71.23
61109;BME280;46995;55.740;37.402;2022-12-05T04:41:21;102191.31;;;-10.73;70.81
61109;BME280;46995;55.740;37.402;2022-12-05T04:43:49;102184.31;;;-10.77;70.80
61109;BME280;46995;55.740;37.402;2022-12-05T04:46:17;102162.66;;;-10.87;70.95
61109;BME280;46995;55.740;37.402;2022-12-05T04:48:49;102181.13;;;-10.73;71.07
61109;BME280;46995;55.740;37.402;2022-12-05T04:51:20;102191.38;;;-10.72;71.06
61109;BME280;46995;55.740;37.402;2022-12-05T04:53:52;102171.38;;;-10.82;71.25
61109;BME280;46995;55.740;37.402;2022-12-05T04:56:21;102174.94;;;-10.78;71.17
61109;BME280;46995;55.740;37.402;2022-12-05T04:58:48;102187.03;;;-10.74;71.56
61109;BME280;46995;55.740;37.402;2022-12-05T05:01:29;102178.50;;;-10.75;70.97
61109;BME280;46995;55.740;37.402;2022-12-05T05:04:05;102177.63;;;-10.75;71.24
61109;BME280;46995;55.740;37.402;2022-12-05T05:06:31;102148.09;;;-10.89;70.51
61109;BME280;46995;55.740;37.402;2022-12-05T05:08:58;102176.81;;;-10.74;71.61
61109;BME280;46995;55.740;37.402;2022-12-05T05:11:30;102173.19;;;-10.79;70.89
61109;BME280;46995;55.740;37.402;2022-12-05T05:13:56;102162.03;;;-10.81;70.68
61109;BME280;46995;55.740;37.402;2022-12-05T05:16:25;102176.13;;;-10.70;70.38
61109;BME280;46995;55.740;37.402;2022-12-05T05:18:52;102159.41;;;-10.83;70.77
61109;BME280;46995;55.740;37.402;2022-12-05T05:21:26;102177.00;;;-10.69;70.69
61109;BME280;46995;55.740;37.402;2022-12-05T05:23:54;102184.84;;;-10.65;70.71
61109;BME280;46995;55.740;37.402;2022-12-05T05:26:21;102181.56;;;-10.62;71.08
61109;BME280;46995;55.740;37.402;2022-12-05T05:28:48;102171.97;;;-10.68;70.94
61109;BME280;46995;55.740;37.402;2022-12-05T05:31:15;102162.56;;;-10.69;70.83
61109;BME280;46995;55.740;37.402;2022-12-05T05:33:41;102171.41;;;-10.61;70.16
61109;BME280;46995;55.740;37.402;2022-12-05T05:36:09;102183.72;;;-10.51;69.73
61109;BME280;46995;55.740;37.402;2022-12-05T05:38:37;102182.81;;;-10.53;70.82
61109;BME280;46995;55.740;37.402;2022-12-05T05:41:03;102190.59;;;-10.50;70.62
61109;BME280;46995;55.740;37.402;2022-12-05T05:43:29;102168.16;;;-10.57;69.90
61109;BME280;46995;55.740;37.402;2022-12-05T05:45:55;102179.75;;;-10.44;69.88
61109;BME280;46995;55.740;37.402;2022-12-05T05:48:20;102173.78;;;-10.45;69.46
61109;BME280;46995;55.740;37.402;2022-12-05T05:50:48;102147.72;;;-10.57;69.85
61109;BME280;46995;55.740;37.402;2022-12-05T05:53:13;102182.38;;;-10.43;69.29
61109;BME280;46995;55.740;37.402;2022-12-05T05:55:40;102168.81;;;-10.42;69.54
61109;BME280;46995;55.740;37.402;2022-12-05T05:58:07;102141.81;;;-10.56;69.10
61109;BME280;46995;55.740;37.402;2022-12-05T06:00:33;102127.88;;;-10.64;69.56
61109;BME280;46995;55.740;37.402;2022-12-05T06:02:59;102157.47;;;-10.48;69.58
61109;BME280;46995;55.740;37.402;2022-12-05T06:05:25;102161.78;;;-10.47;69.79
61109;BME280;46995;55.740;37.402;2022-12-05T06:07:51;102174.03;;;-10.39;69.83
61109;BME280;46995;55.740;37.402;2022-12-05T06:10:17;102164.63;;;-10.40;68.92
61109;BME280;46995;55.740;37.402;2022-12-05T06:12:43;102149.22;;;-10.41;69.50
61109;BME280;46995;55.740;37.402;2022-12-05T06:15:09;102156.47;;;-10.31;68.74
61109;BME280;46995;55.740;37.402;2022-12-05T06:17:35;102154.84;;;-10.29;69.01
61109;BME280;46995;55.740;37.402;2022-12-05T06:20:02;102147.00;;;-10.34;69.03
61109;BME280;46995;55.740;37.402;2022-12-05T06:22:30;102166.28;;;-10.19;68.84
61109;BME280;46995;55.740;37.402;2022-12-05T06:24:55;102165.47;;;-10.18;68.96
61109;BME280;46995;55.740;37.402;2022-12-05T06:27:22;102148.47;;;-10.18;68.58
61109;BME280;46995;55.740;37.402;2022-12-05T06:29:48;102139.34;;;-10.11;68.76
61109;BME280;46995;55.740;37.402;2022-12-05T06:32:13;102140.75;;;-10.19;68.52
61109;BME280;46995;55.740;37.402;2022-12-05T06:34:39;102139.06;;;-10.19;67.94
61109;BME280;46995;55.740;37.402;2022-12-05T06:37:05;102143.69;;;-10.09;67.72
61109;BME280;46995;55.740;37.402;2022-12-05T06:39:31;102149.91;;;-10.02;67.94
61109;BME280;46995;55.740;37.402;2022-12-05T06:41:57;102160.38;;;-9.96;67.78
61109;BME280;46995;55.740;37.402;2022-12-05T06:44:23;102158.88;;;-9.91;67.82
61109;BME280;46995;55.740;37.402;2022-12-05T06:46:52;102140.19;;;-9.90;68.08
61109;BME280;46995;55.740;37.402;2022-12-05T06:49:18;102145.88;;;-9.75;67.70
61109;BME280;46995;55.740;37.402;2022-12-05T06:51:44;102116.72;;;-9.80;67.30
61109;BME280;46995;55.740;37.402;2022-12-05T06:54:11;102128.13;;;-9.70;66.33
61109;BME280;46995;55.740;37.402;2022-12-05T06:56:37;102122.94;;;-9.73;66.86
61109;BME280;46995;55.740;37.402;2022-12-05T06:59:03;102130.88;;;-9.66;67.22
61109;BME280;46995;55.740;37.402;2022-12-05T07:01:29;102126.56;;;-9.67;66.33
61109;BME280;46995;55.740;37.402;2022-12-05T07:04:06;102135.97;;;-9.66;66.38
61109;BME280;46995;55.740;37.402;2022-12-05T07:06:36;102150.69;;;-9.60;66.58
61109;BME280;46995;55.740;37.402;2022-12-05T07:09:03;102135.34;;;-9.60;66.51
61109;BME280;46995;55.740;37.402;2022-12-05T07:11:29;102130.31;;;-9.57;66.11
61109;BME280;46995;55.740;37.402;2022-12-05T07:13:56;102146.03;;;-9.48;66.18
61109;BME280;46995;55.740;37.402;2022-12-05T07:16:22;102129.03;;;-9.46;66.66
61109;BME280;46995;55.740;37.402;2022-12-05T07:18:48;102147.31;;;-9.35;66.00
61109;BME280;46995;55.740;37.402;2022-12-05T07:21:15;102122.94;;;-9.50;65.91
61109;BME280;46995;55.740;37.402;2022-12-05T07:23:43;102124.56;;;-9.52;66.60
61109;BME280;46995;55.740;37.402;2022-12-05T07:26:13;102140.47;;;-9.36;66.40
61109;BME280;46995;55.740;37.402;2022-12-05T07:28:39;102132.78;;;-9.36;65.92
61109;BME280;46995;55.740;37.402;2022-12-05T07:31:10;102136.50;;;-9.28;65.77
61109;BME280;46995;55.740;37.402;2022-12-05T07:33:36;102125.41;;;-9.29;65.54
61109;BME280;46995;55.740;37.402;2022-12-05T07:36:05;102096.06;;;-9.38;65.52
61109;BME280;46995;55.740;37.402;2022-12-05T07:38:31;102091.03;;;-9.37;65.89
61109;BME280;46995;55.740;37.402;2022-12-05T07:40:56;102101.50;;;-9.29;65.40
61109;BME280;46995;55.740;37.402;2022-12-05T07:43:23;102105.66;;;-9.33;65.84
61109;BME280;46995;55.740;37.402;2022-12-05T07:45:49;102105.69;;;-9.31;65.23
61109;BME280;46995;55.740;37.402;2022-12-05T07:48:15;102116.28;;;-9.21;65.53
61109;BME280;46995;55.740;37.402;2022-12-05T07:50:41;102099.16;;;-9.23;64.96
61109;BME280;46995;55.740;37.402;2022-12-05T07:53:07;102116.88;;;-9.04;65.09
61109;BME280;46995;55.740;37.402;2022-12-05T07:55:32;102115.56;;;-8.93;65.03
61109;BME280;46995;55.740;37.402;2022-12-05T07:57:59;102093.84;;;-9.04;65.03
61109;BME280;46995;55.740;37.402;2022-12-05T08:00:25;102111.38;;;-8.91;64.53
61109;BME280;46995;55.740;37.402;2022-12-05T08:02:52;102099.31;;;-8.95;64.63
61109;BME280;46995;55.740;37.402;2022-12-05T08:05:18;102083.94;;;-8.95;64.31
61109;BME280;46995;55.740;37.402;2022-12-05T08:07:43;102050.09;;;-9.12;64.63
61109;BME280;46995;55.740;37.402;2022-12-05T08:10:09;102067.16;;;-8.87;64.89
61109;BME280;46995;55.740;37.402;2022-12-05T08:12:35;102080.97;;;-8.82;64.46
61109;BME280;46995;55.740;37.402;2022-12-05T08:15:02;102077.59;;;-8.81;63.92
61109;BME280;46995;55.740;37.402;2022-12-05T08:17:29;102066.63;;;-8.77;63.64
61109;BME280;46995;55.740;37.402;2022-12-05T08:19:55;102072.97;;;-8.66;63.83
61109;BME280;46995;55.740;37.402;2022-12-05T08:22:21;102066.22;;;-8.64;63.78
61109;BME280;46995;55.740;37.402;2022-12-05T08:24:49;102069.97;;;-8.52;63.36
61109;BME280;46995;55.740;37.402;2022-12-05T08:27:14;102064.00;;;-8.53;63.35
61109;BME280;46995;55.740;37.402;2022-12-05T08:29:40;102074.59;;;-8.41;63.03
61109;BME280;46995;55.740;37.402;2022-12-05T08:32:06;102050.47;;;-8.47;63.05
61109;BME280;46995;55.740;37.402;2022-12-05T08:34:32;102067.06;;;-8.36;62.70
61109;BME280;46995;55.740;37.402;2022-12-05T08:36:57;102043.81;;;-8.42;62.85
61109;BME280;46995;55.740;37.402;2022-12-05T08:39:23;102044.06;;;-8.35;63.29
61109;BME280;46995;55.740;37.402;2022-12-05T08:41:49;102026.06;;;-8.36;62.76
61109;BME280;46995;55.740;37.402;2022-12-05T08:44:15;102047.09;;;-8.18;62.70
61109;BME280;46995;55.740;37.402;2022-12-05T08:46:45;102055.06;;;-8.09;62.21
61109;BME280;46995;55.740;37.402;2022-12-05T08:49:11;102056.00;;;-8.07;62.11
61109;BME280;46995;55.740;37.402;2022-12-05T08:51:39;102048.31;;;-8.05;62.20
61109;BME280;46995;55.740;37.402;2022-12-05T08:54:05;102052.06;;;-7.96;61.86
61109;BME280;46995;55.740;37.402;2022-12-05T08:56:31;102025.41;;;-8.01;62.28
61109;BME280;46995;55.740;37.402;2022-12-05T08:58:59;102036.78;;;-7.91;61.87
61109;BME280;46995;55.740;37.402;2022-12-05T09:01:26;102027.41;;;-7.91;62.20
61109;BME280;46995;55.740;37.402;2022-12-05T09:03:57;102036.97;;;-7.85;61.97
61109;BME280;46995;55.740;37.402;2022-12-05T09:06:25;102020.53;;;-7.92;61.97
61109;BME280;46995;55.740;37.402;2022-12-05T09:08:56;102033.69;;;-7.80;62.02
61109;BME280;46995;55.740;37.402;2022-12-05T09:11:25;102038.00;;;-7.79;61.78
61109;BME280;46995;55.740;37.402;2022-12-05T09:13:52;102024.84;;;-7.91;61.98
61109;BME280;46995;55.740;37.402;2022-12-05T09:16:25;102023.16;;;-7.90;62.02
61109;BME280;46995;55.740;37.402;2022-12-05T09:18:51;102007.22;;;-8.08;62.13
61109;BME280;46995;55.740;37.402;2022-12-05T09:21:22;102017.66;;;-8.02;61.75
61109;BME280;46995;55.740;37.402;2022-12-05T09:23:48;102006.53;;;-8.03;62.50
61109;BME280;46995;55.740;37.402;2022-12-05T09:26:16;102012.75;;;-7.95;62.30
61109;BME280;46995;55.740;37.402;2022-12-05T09:28:43;102012.03;;;-7.91;61.89
61109;BME280;46995;55.740;37.402;2022-12-05T09:31:15;102007.91;;;-7.84;61.93
61109;BME280;46995;55.740;37.402;2022-12-05T09:33:43;102007.22;;;-7.79;61.65
61109;BME280;46995;55.740;37.402;2022-12-05T09:36:13;101995.94;;;-7.85;61.87
61109;BME280;46995;55.740;37.402;2022-12-05T09:38:39;101995.91;;;-7.87;61.93
61109;BME280;46995;55.740;37.402;2022-12-05T09:46:53;101974.69;;;-7.80;61.00
61109;BME280;46995;55.740;37.402;2022-12-05T09:49:22;101981.75;;;-7.73;61.67
61109;BME280;46995;55.740;37.402;2022-12-05T09:51:50;101953.06;;;-7.89;61.84
61109;BME280;46995;55.740;37.402;2022-12-05T09:54:17;101974.22;;;-7.66;61.17
61109;BME280;46995;55.740;37.402;2022-12-05T09:56:44;101965.66;;;-7.67;61.49
61109;BME280;46995;55.740;37.402;2022-12-05T09:59:14;101977.13;;;-7.54;61.33
61109;BME280;46995;55.740;37.402;2022-12-05T10:09:51;101958.47;;;-7.47;61.28
61109;BME280;46995;55.740;37.402;2022-12-05T10:15:10;101955.84;;;-7.50;61.25
61109;BME280;46995;55.740;37.402;2022-12-05T10:17:41;101946.28;;;-7.56;61.82
61109;BME280;46995;55.740;37.402;2022-12-05T10:20:14;101936.09;;;-7.54;60.98
61109;BME280;46995;55.740;37.402;2022-12-05T10:22:51;101948.31;;;-7.44;61.53
61109;BME280;46995;55.740;37.402;2022-12-05T10:25:20;101929.22;;;-7.55;61.13
61109;BME280;46995;55.740;37.402;2022-12-05T10:27:55;101935.47;;;-7.44;61.55
61109;BME280;46995;55.740;37.402;2022-12-05T10:30:26;101924.25;;;-7.49;61.14
61109;BME280;46995;55.740;37.402;2022-12-05T10:32:56;101939.13;;;-7.35;60.83
61109;BME280;46995;55.740;37.402;2022-12-05T10:35:26;101945.22;;;-7.31;61.05
61109;BME280;46995;55.740;37.402;2022-12-05T10:38:08;101907.16;;;-7.47;60.93
61109;BME280;46995;55.740;37.402;2022-12-05T10:40:50;101926.25;;;-7.36;61.18
61109;BME280;46995;55.740;37.402;2022-12-05T10:43:23;101914.97;;;-7.43;61.37
61109;BME280;46995;55.740;37.402;2022-12-05T10:45:49;101906.34;;;-7.46;61.32
61109;BME280;46995;55.740;37.402;2022-12-05T10:48:17;101930.56;;;-7.35;61.35
61109;BME280;46995;55.740;37.402;2022-12-05T10:50:45;101935.66;;;-7.37;61.93
61109;BME280;46995;55.740;37.402;2022-12-05T10:53:19;101901.03;;;-7.54;61.21
61109;BME280;46995;55.740;37.402;2022-12-05T10:55:46;101924.31;;;-7.46;61.03
61109;BME280;46995;55.740;37.402;2022-12-05T10:58:15;101934.66;;;-7.43;61.11
61109;BME280;46995;55.740;37.402;2022-12-05T11:00:46;101931.06;;;-7.48;60.91
61109;BME280;46995;55.740;37.402;2022-12-05T11:03:29;101924.13;;;-7.52;61.20
61109;BME280;46995;55.740;37.402;2022-12-05T11:06:01;101920.69;;;-7.54;61.14
61109;BME280;46995;55.740;37.402;2022-12-05T11:08:29;101919.72;;;-7.58;60.79
61109;BME280;46995;55.740;37.402;2022-12-05T11:11:22;101931.94;;;-7.49;60.99
61109;BME280;46995;55.740;37.402;2022-12-05T11:16:35;101882.31;;;-7.83;61.24
61109;BME280;46995;55.740;37.402;2022-12-05T11:21:47;101924.94;;;-7.55;60.77
61109;BME280;46995;55.740;37.402;2022-12-05T11:24:48;101916.44;;;-7.52;62.06
61109;BME280;46995;55.740;37.402;2022-12-05T11:29:45;101863.31;;;-7.91;61.01
61109;BME280;46995;55.740;37.402;2022-12-05T11:32:21;101913.66;;;-7.61;60.93
61109;BME280;46995;55.740;37.402;2022-12-05T11:37:54;101887.66;;;-7.75;61.48
61109;BME280;46995;55.740;37.402;2022-12-05T11:44:39;101859.94;;;-7.88;61.20
61109;BME280;46995;55.740;37.402;2022-12-05T11:55:37;101887.06;;;-7.65;61.25
61109;BME280;46995;55.740;37.402;2022-12-05T12:04:12;101857.59;;;-7.81;61.30
61109;BME280;46995;55.740;37.402;2022-12-05T12:28:01;101839.25;;;-7.96;62.12
61109;BME280;46995;55.740;37.402;2022-12-05T12:36:14;101837.41;;;-8.00;63.43
61109;BME280;46995;55.740;37.402;2022-12-05T12:47:16;101831.16;;;-8.11;62.87
61109;BME280;46995;55.740;37.402;2022-12-05T13:04:09;101820.59;;;-8.23;63.96
61109;BME280;46995;55.740;37.402;2022-12-05T13:12:12;101823.78;;;-8.32;64.47
61109;BME280;46995;55.740;37.402;2022-12-05T13:14:43;101813.31;;;-8.41;64.60
61109;BME280;46995;55.740;37.402;2022-12-05T13:17:16;101816.16;;;-8.30;64.90
61109;BME280;46995;55.740;37.402;2022-12-05T13:19:47;101805.56;;;-8.42;64.38
61109;BME280;46995;55.740;37.402;2022-12-05T13:22:17;101812.72;;;-8.32;65.04
61109;BME280;46995;55.740;37.402;2022-12-05T13:24:44;101810.97;;;-8.32;65.37
61109;BME280;46995;55.740;37.402;2022-12-05T13:27:17;101803.34;;;-8.30;65.68
61109;BME280;46995;55.740;37.402;2022-12-05T13:29:57;101799.84;;;-8.34;65.02
61109;BME280;46995;55.740;37.402;2022-12-05T13:32:36;101773.78;;;-8.50;65.29
61109;BME280;46995;55.740;37.402;2022-12-05T13:35:10;101791.13;;;-8.40;65.32
61109;BME280;46995;55.740;37.402;2022-12-05T13:37:44;101783.09;;;-8.52;65.47
61109;BME280;46995;55.740;37.402;2022-12-05T13:40:36;101784.66;;;-8.58;65.86
61109;BME280;46995;55.740;37.402;2022-12-05T13:43:26;101768.19;;;-8.67;65.77
61109;BME280;46995;55.740;37.402;2022-12-05T13:46:22;101801.94;;;-8.50;65.74
61109;BME280;46995;55.740;37.402;2022-12-05T13:48:48;101777.84;;;-8.59;66.11
61109;BME280;46995;55.740;37.402;2022-12-05T13:51:30;101783.78;;;-8.58;66.45
61109;BME280;46995;55.740;37.402;2022-12-05T13:54:24;101793.34;;;-8.52;66.26
61109;BME280;46995;55.740;37.402;2022-12-05T13:56:59;101789.06;;;-8.53;66.22
61109;BME280;46995;55.740;37.402;2022-12-05T14:07:53;101782.31;;;-8.50;65.85
61109;BME280;46995;55.740;37.402;2022-12-05T14:15:43;101749.22;;;-8.42;65.89
61109;BME280;46995;55.740;37.402;2022-12-05T14:18:16;101752.84;;;-8.34;65.83
61109;BME280;46995;55.740;37.402;2022-12-05T14:20:50;101761.66;;;-8.23;65.27
61109;BME280;46995;55.740;37.402;2022-12-05T14:23:42;101756.53;;;-8.23;65.29
61109;BME280;46995;55.740;37.402;2022-12-05T14:32:00;101747.22;;;-8.20;65.07
61109;BME280;46995;55.740;37.402;2022-12-05T14:34:31;101737.56;;;-8.31;65.53
61109;BME280;46995;55.740;37.402;2022-12-05T14:39:39;101717.63;;;-8.43;65.88
61109;BME280;46995;55.740;37.402;2022-12-05T14:42:20;101726.25;;;-8.39;65.74
61109;BME280;46995;55.740;37.402;2022-12-05T14:44:53;101728.81;;;-8.39;65.96
61109;BME280;46995;55.740;37.402;2022-12-05T14:47:31;101686.53;;;-8.57;65.41
61109;BME280;46995;55.740;37.402;2022-12-05T15:01:05;101718.06;;;-8.25;65.52
61109;BME280;46995;55.740;37.402;2022-12-05T15:03:35;101687.03;;;-8.37;65.66
61109;BME280;46995;55.740;37.402;2022-12-05T15:06:05;101660.16;;;-8.52;65.94
61109;BME280;46995;55.740;37.402;2022-12-05T15:08:48;101693.19;;;-8.30;65.66
61109;BME280;46995;55.740;37.402;2022-12-05T15:11:18;101700.22;;;-8.22;65.19
61109;BME280;46995;55.740;37.402;2022-12-05T15:16:36;101685.50;;;-8.29;65.93
61109;BME280;46995;55.740;37.402;2022-12-05T15:19:14;101655.13;;;-8.49;65.74
61109;BME280;46995;55.740;37.402;2022-12-05T15:21:42;101655.03;;;-8.52;65.74
61109;BME280;46995;55.740;37.402;2022-12-05T15:24:14;101686.13;;;-8.39;66.13
61109;BME280;46995;55.740;37.402;2022-12-05T15:31:57;101696.56;;;-8.31;65.72
61109;BME280;46995;55.740;37.402;2022-12-05T15:37:32;101686.97;;;-8.40;66.23
61109;BME280;46995;55.740;37.402;2022-12-05T15:40:12;101693.78;;;-8.40;66.36
61109;BME280;46995;55.740;37.402;2022-12-05T15:42:54;101694.69;;;-8.38;66.04
61109;BME280;46995;55.740;37.402;2022-12-05T15:45:24;101667.88;;;-8.51;65.85